sensor_id;sensor_type;location;lat;lon;timestamp;pressure;altitude;pressure_sealevel;temperature;humidity
64889;BME280;51386;53.082;8.816;2024-03-02T00:01:53;100286.72;;;11.22;61.27
64889;BME280;51386;53.082;8.816;2024-03-02T00:04:22;100274.91;;;11.18;61.26
64889;BME280;51386;53.082;8.816;2024-03-02T00:06:53;100276.94;;;11.16;61.23
64889;BME280;51386;53.082;8.816;2024-03-02T00:09:25;100273.69;;;11.14;61.42
64889;BME280;51386;53.082;8.816;2024-03-02T00:11:53;100275.69;;;11.12;61.56
64889;BME280;51386;53.082;8.816;2024-03-02T00:14:22;100273.63;;;11.07;61.66
64889;BME280;51386;53.082;8.816;2024-03-02T00:17:04;100274.63;;;11.06;61.50
64889;BME280;51386;53.082;8.816;2024-03-02T00:19:32;100273.19;;;11.04;61.76
64889;BME280;51386;53.082;8.816;2024-03-02T00:22:01;100282.09;;;11.03;62.11
64889;BME280;51386;53.082;8.816;2024-03-02T00:24:34;100273.53;;;11.01;61.80
64889;BME280;51386;53.082;8.816;2024-03-02T00:27:05;100277.19;;;11.00;61.71
64889;BME280;51386;53.082;8.816;2024-03-02T00:29:35;100282.47;;;11.00;61.73
64889;BME280;51386;53.082;8.816;2024-03-02T00:32:10;100277.19;;;11.00;61.71
64889;BME280;51386;53.082;8.816;2024-03-02T00:34:41;100273.53;;;11.01;61.46
64889;BME280;51386;53.082;8.816;2024-03-02T00:37:10;100277.19;;;11.00;61.68
64889;BME280;51386;53.082;8.816;2024-03-02T00:39:39;100265.44;;;10.96;61.88
64889;BME280;51386;53.082;8.816;2024-03-02T00:42:08;100262.13;;;10.94;61.89
64889;BME280;51386;53.082;8.816;2024-03-02T00:44:37;100265.34;;;10.89;62.06
64889;BME280;51386;53.082;8.816;2024-03-02T00:47:05;100262.91;;;10.87;62.04
64889;BME280;51386;53.082;8.816;2024-03-02T00:49:33;100255.22;;;10.86;62.11
64889;BME280;51386;53.082;8.816;2024-03-02T00:52:06;100256.41;;;10.83;62.12
64889;BME280;51386;53.082;8.816;2024-03-02T00:54:35;100255.56;;;10.83;62.08
64889;BME280;51386;53.082;8.816;2024-03-02T00:57:04;100256.56;;;10.82;62.14
64889;BME280;51386;53.082;8.816;2024-03-02T00:59:32;100262.03;;;10.80;62.17
64889;BME280;51386;53.082;8.816;2024-03-02T01:02:01;100258.78;;;10.78;62.19
64889;BME280;51386;53.082;8.816;2024-03-02T01:04:29;100256.72;;;10.74;62.19
64889;BME280;51386;53.082;8.816;2024-03-02T01:06:58;100250.63;;;10.73;62.30
64889;BME280;51386;53.082;8.816;2024-03-02T01:09:27;100244.72;;;10.71;62.30
64889;BME280;51386;53.082;8.816;2024-03-02T01:11:55;100243.28;;;10.69;62.25
64889;BME280;51386;53.082;8.816;2024-03-02T01:14:23;100242.66;;;10.67;62.18
64889;BME280;51386;53.082;8.816;2024-03-02T01:16:52;100247.09;;;10.66;62.28
64889;BME280;51386;53.082;8.816;2024-03-02T01:19:20;100244.69;;;10.65;62.38
64889;BME280;51386;53.082;8.816;2024-03-02T01:21:49;100245.66;;;10.64;62.52
64889;BME280;51386;53.082;8.816;2024-03-02T01:24:18;100244.22;;;10.61;62.57
64889;BME280;51386;53.082;8.816;2024-03-02T01:26:47;100247.84;;;10.60;62.27
64889;BME280;51386;53.082;8.816;2024-03-02T01:29:15;100243.59;;;10.59;62.39
64889;BME280;51386;53.082;8.816;2024-03-02T01:31:43;100241.94;;;10.58;62.44
64889;BME280;51386;53.082;8.816;2024-03-02T01:34:12;100237.09;;;10.55;62.20
64889;BME280;51386;53.082;8.816;2024-03-02T01:36:40;100233.00;;;10.53;62.34
64889;BME280;51386;53.082;8.816;2024-03-02T01:39:09;100235.19;;;10.49;62.33
64889;BME280;51386;53.082;8.816;2024-03-02T01:41:37;100231.94;;;10.47;62.42
64889;BME280;51386;53.082;8.816;2024-03-02T01:44:06;100234.94;;;10.44;62.31
64889;BME280;51386;53.082;8.816;2024-03-02T01:46:34;100232.13;;;10.46;62.60
64889;BME280;51386;53.082;8.816;2024-03-02T01:49:04;100228.84;;;10.44;62.28
64889;BME280;51386;53.082;8.816;2024-03-02T01:51:32;100229.66;;;10.44;62.34
64889;BME280;51386;53.082;8.816;2024-03-02T01:54:01;100228.06;;;10.43;62.38
64889;BME280;51386;53.082;8.816;2024-03-02T01:56:29;100220.53;;;10.40;62.50
64889;BME280;51386;53.082;8.816;2024-03-02T01:58:58;100224.13;;;10.39;62.44
64889;BME280;51386;53.082;8.816;2024-03-02T02:01:26;100216.66;;;10.36;62.72
64889;BME280;51386;53.082;8.816;2024-03-02T02:03:55;100220.25;;;10.35;62.67
64889;BME280;51386;53.082;8.816;2024-03-02T02:06:23;100224.06;;;10.33;62.60
64889;BME280;51386;53.082;8.816;2024-03-02T02:08:52;100217.63;;;10.35;62.46
64889;BME280;51386;53.082;8.816;2024-03-02T02:11:20;100211.75;;;10.33;62.49
64889;BME280;51386;53.082;8.816;2024-03-02T02:13:49;100209.31;;;10.32;62.44
64889;BME280;51386;53.082;8.816;2024-03-02T02:16:17;100200.59;;;10.31;62.43
64889;BME280;51386;53.082;8.816;2024-03-02T02:18:45;100206.03;;;10.30;62.56
64889;BME280;51386;53.082;8.816;2024-03-02T02:21:14;100195.06;;;10.26;62.57
64889;BME280;51386;53.082;8.816;2024-03-02T02:23:42;100195.06;;;10.26;62.48
64889;BME280;51386;53.082;8.816;2024-03-02T02:26:14;100195.06;;;10.26;62.54
64889;BME280;51386;53.082;8.816;2024-03-02T02:28:42;100194.06;;;10.27;62.47
64889;BME280;51386;53.082;8.816;2024-03-02T02:31:14;100199.50;;;10.26;62.48
64889;BME280;51386;53.082;8.816;2024-03-02T02:33:43;100197.72;;;10.26;62.46
64889;BME280;51386;53.082;8.816;2024-03-02T02:36:11;100203.97;;;10.25;62.33
64889;BME280;51386;53.082;8.816;2024-03-02T02:38:46;100193.84;;;10.22;62.59
64889;BME280;51386;53.082;8.816;2024-03-02T02:41:15;100188.13;;;10.18;62.39
64889;BME280;51386;53.082;8.816;2024-03-02T02:43:44;100192.13;;;10.14;62.89
64889;BME280;51386;53.082;8.816;2024-03-02T02:46:12;100185.41;;;10.12;63.15
64889;BME280;51386;53.082;8.816;2024-03-02T02:48:41;100193.31;;;10.12;62.98
64889;BME280;51386;53.082;8.816;2024-03-02T02:51:09;100187.03;;;10.13;63.14
64889;BME280;51386;53.082;8.816;2024-03-02T02:53:37;100188.88;;;10.12;63.05
64889;BME280;51386;53.082;8.816;2024-03-02T02:56:08;100188.38;;;10.09;63.30
64889;BME280;51386;53.082;8.816;2024-03-02T02:58:37;100179.50;;;10.10;63.18
64889;BME280;51386;53.082;8.816;2024-03-02T03:01:05;100177.22;;;10.07;63.56
64889;BME280;51386;53.082;8.816;2024-03-02T03:03:34;100177.59;;;10.04;63.87
64889;BME280;51386;53.082;8.816;2024-03-02T03:06:02;100180.59;;;10.01;63.86
64889;BME280;51386;53.082;8.816;2024-03-02T03:08:31;100177.31;;;9.99;64.20
64889;BME280;51386;53.082;8.816;2024-03-02T03:10:59;100172.47;;;9.96;64.38
64889;BME280;51386;53.082;8.816;2024-03-02T03:13:28;100172.81;;;9.93;64.55
64889;BME280;51386;53.082;8.816;2024-03-02T03:15:56;100167.72;;;9.91;64.54
64889;BME280;51386;53.082;8.816;2024-03-02T03:18:24;100169.56;;;9.91;64.54
64889;BME280;51386;53.082;8.816;2024-03-02T03:20:53;100171.56;;;9.89;64.76
64889;BME280;51386;53.082;8.816;2024-03-02T03:23:21;100156.59;;;9.89;65.01
64889;BME280;51386;53.082;8.816;2024-03-02T03:25:50;100164.66;;;9.88;65.03
64889;BME280;51386;53.082;8.816;2024-03-02T03:28:18;100163.84;;;9.87;64.74
64889;BME280;51386;53.082;8.816;2024-03-02T03:30:47;100165.50;;;9.88;64.95
64889;BME280;51386;53.082;8.816;2024-03-02T03:33:15;100167.66;;;9.85;65.23
64889;BME280;51386;53.082;8.816;2024-03-02T03:35:43;100161.78;;;9.83;65.06
64889;BME280;51386;53.082;8.816;2024-03-02T03:38:12;100162.59;;;9.83;65.16
64889;BME280;51386;53.082;8.816;2024-03-02T03:40:40;100161.97;;;9.81;65.37
64889;BME280;51386;53.082;8.816;2024-03-02T03:43:09;100155.25;;;9.79;65.29
64889;BME280;51386;53.082;8.816;2024-03-02T03:45:37;100156.88;;;9.80;65.01
64889;BME280;51386;53.082;8.816;2024-03-02T03:48:06;100146.38;;;9.80;65.42
64889;BME280;51386;53.082;8.816;2024-03-02T03:50:34;100153.63;;;9.78;65.28
64889;BME280;51386;53.082;8.816;2024-03-02T03:53:03;100162.13;;;9.80;65.15
64889;BME280;51386;53.082;8.816;2024-03-02T03:55:31;100158.88;;;9.78;65.29
64889;BME280;51386;53.082;8.816;2024-03-02T03:58:00;100161.69;;;9.76;65.46
64889;BME280;51386;53.082;8.816;2024-03-02T04:00:28;100155.00;;;9.74;65.47
64889;BME280;51386;53.082;8.816;2024-03-02T04:02:56;100148.91;;;9.73;65.50
64889;BME280;51386;53.082;8.816;2024-03-02T04:05:25;100143.66;;;9.73;65.26
64889;BME280;51386;53.082;8.816;2024-03-02T04:07:53;100150.72;;;9.73;65.44
64889;BME280;51386;53.082;8.816;2024-03-02T04:10:22;100144.28;;;9.75;65.28
64889;BME280;51386;53.082;8.816;2024-03-02T04:12:50;100143.47;;;9.75;65.40
64889;BME280;51386;53.082;8.816;2024-03-02T04:15:19;100139.22;;;9.74;65.24
64889;BME280;51386;53.082;8.816;2024-03-02T04:17:47;100137.22;;;9.76;65.15
64889;BME280;51386;53.082;8.816;2024-03-02T04:20:16;100132.16;;;9.74;65.16
64889;BME280;51386;53.082;8.816;2024-03-02T04:22:44;100139.03;;;9.75;65.15
64889;BME280;51386;53.082;8.816;2024-03-02T04:25:13;100136.59;;;9.74;65.37
64889;BME280;51386;53.082;8.816;2024-03-02T04:27:41;100136.59;;;9.74;65.31
64889;BME280;51386;53.082;8.816;2024-03-02T04:30:10;100140.59;;;9.70;65.12
64889;BME280;51386;53.082;8.816;2024-03-02T04:32:39;100141.59;;;9.69;65.50
64889;BME280;51386;53.082;8.816;2024-03-02T04:35:07;100151.47;;;9.67;65.49
64889;BME280;51386;53.082;8.816;2024-03-02T04:37:38;100159.78;;;9.70;65.53
64889;BME280;51386;53.082;8.816;2024-03-02T04:40:07;100170.56;;;9.75;65.14
64889;BME280;51386;53.082;8.816;2024-03-02T04:42:37;100167.78;;;9.77;65.00
64889;BME280;51386;53.082;8.816;2024-03-02T04:45:05;100175.09;;;9.81;64.92
64889;BME280;51386;53.082;8.816;2024-03-02T04:47:35;100177.53;;;9.83;64.79
64889;BME280;51386;53.082;8.816;2024-03-02T04:50:04;100181.97;;;9.82;64.82
64889;BME280;51386;53.082;8.816;2024-03-02T04:52:32;100188.06;;;9.83;64.67
64889;BME280;51386;53.082;8.816;2024-03-02T04:55:01;100180.53;;;9.80;64.62
64889;BME280;51386;53.082;8.816;2024-03-02T04:57:52;100179.75;;;9.79;64.89
64889;BME280;51386;53.082;8.816;2024-03-02T05:00:23;100175.91;;;9.82;64.82
64889;BME280;51386;53.082;8.816;2024-03-02T05:02:51;100192.50;;;9.82;64.58
64889;BME280;51386;53.082;8.816;2024-03-02T05:05:19;100181.16;;;9.82;64.78
64889;BME280;51386;53.082;8.816;2024-03-02T05:07:48;100176.56;;;9.84;64.40
64889;BME280;51386;53.082;8.816;2024-03-02T05:10:16;100183.63;;;9.83;64.60
64889;BME280;51386;53.082;8.816;2024-03-02T05:12:45;100184.44;;;9.84;64.50
64889;BME280;51386;53.082;8.816;2024-03-02T05:15:14;100184.44;;;9.84;64.31
64889;BME280;51386;53.082;8.816;2024-03-02T05:17:43;100186.06;;;9.85;64.17
64889;BME280;51386;53.082;8.816;2024-03-02T05:20:11;100193.13;;;9.84;64.43
64889;BME280;51386;53.082;8.816;2024-03-02T05:22:40;100187.06;;;9.84;64.34
64889;BME280;51386;53.082;8.816;2024-03-02T05:25:08;100179.19;;;9.84;64.51
64889;BME280;51386;53.082;8.816;2024-03-02T05:27:39;100182.81;;;9.83;64.44
64889;BME280;51386;53.082;8.816;2024-03-02T05:30:09;100179.19;;;9.84;64.36
64889;BME280;51386;53.082;8.816;2024-03-02T05:32:37;100174.28;;;9.81;64.35
64889;BME280;51386;53.082;8.816;2024-03-02T05:35:06;100184.16;;;9.79;64.44
64889;BME280;51386;53.082;8.816;2024-03-02T05:37:35;100186.81;;;9.79;64.51
64889;BME280;51386;53.082;8.816;2024-03-02T05:40:05;100181.72;;;9.77;64.70
64889;BME280;51386;53.082;8.816;2024-03-02T05:42:34;100180.91;;;9.77;64.62
64889;BME280;51386;53.082;8.816;2024-03-02T05:45:03;100194.06;;;9.77;64.71
64889;BME280;51386;53.082;8.816;2024-03-02T05:47:32;100197.66;;;9.76;64.66
64889;BME280;51386;53.082;8.816;2024-03-02T05:50:01;100191.59;;;9.75;64.67
64889;BME280;51386;53.082;8.816;2024-03-02T05:52:31;100200.03;;;9.71;64.90
64889;BME280;51386;53.082;8.816;2024-03-02T05:55:00;100201.66;;;9.72;64.66
64889;BME280;51386;53.082;8.816;2024-03-02T05:57:28;100204.28;;;9.72;64.91
64889;BME280;51386;53.082;8.816;2024-03-02T06:00:13;100206.28;;;9.70;64.85
64889;BME280;51386;53.082;8.816;2024-03-02T06:02:45;100208.91;;;9.70;64.96
64889;BME280;51386;53.082;8.816;2024-03-02T06:05:14;100206.81;;;9.65;65.06
64889;BME280;51386;53.082;8.816;2024-03-02T06:07:43;100215.50;;;9.66;65.21
64889;BME280;51386;53.082;8.816;2024-03-02T06:10:12;100206.03;;;9.65;65.00
64889;BME280;51386;53.082;8.816;2024-03-02T06:12:40;100212.88;;;9.66;65.06
64889;BME280;51386;53.082;8.816;2024-03-02T06:15:09;100212.88;;;9.66;65.18
64889;BME280;51386;53.082;8.816;2024-03-02T06:17:38;100214.53;;;9.67;65.18
64889;BME280;51386;53.082;8.816;2024-03-02T06:20:08;100212.88;;;9.66;65.29
64889;BME280;51386;53.082;8.816;2024-03-02T06:22:37;100215.34;;;9.67;65.04
64889;BME280;51386;53.082;8.816;2024-03-02T06:25:05;100214.53;;;9.67;65.17
64889;BME280;51386;53.082;8.816;2024-03-02T06:27:34;100216.16;;;9.68;65.30
64889;BME280;51386;53.082;8.816;2024-03-02T06:30:03;100217.78;;;9.69;65.14
64889;BME280;51386;53.082;8.816;2024-03-02T06:32:32;100218.59;;;9.69;64.81
64889;BME280;51386;53.082;8.816;2024-03-02T06:35:01;100219.44;;;9.70;65.32
64889;BME280;51386;53.082;8.816;2024-03-02T06:37:29;100226.66;;;9.68;65.16
64889;BME280;51386;53.082;8.816;2024-03-02T06:39:57;100229.94;;;9.70;65.19
64889;BME280;51386;53.082;8.816;2024-03-02T06:42:26;100221.69;;;9.73;65.30
64889;BME280;51386;53.082;8.816;2024-03-02T06:44:55;100227.56;;;9.75;65.07
64889;BME280;51386;53.082;8.816;2024-03-02T06:47:23;100222.78;;;9.78;65.00
64889;BME280;51386;53.082;8.816;2024-03-02T06:49:52;100226.03;;;9.80;65.02
64889;BME280;51386;53.082;8.816;2024-03-02T06:52:21;100230.72;;;9.85;64.97
64889;BME280;51386;53.082;8.816;2024-03-02T06:54:51;100234.81;;;9.87;64.98
64889;BME280;51386;53.082;8.816;2024-03-02T06:57:19;100234.25;;;9.92;64.89
64889;BME280;51386;53.082;8.816;2024-03-02T06:59:48;100227.81;;;9.94;64.73
64889;BME280;51386;53.082;8.816;2024-03-02T07:02:19;100238.81;;;9.98;64.65
64889;BME280;51386;53.082;8.816;2024-03-02T07:04:48;100243.50;;;10.02;64.58
64889;BME280;51386;53.082;8.816;2024-03-02T07:07:16;100248.22;;;10.07;64.71
64889;BME280;51386;53.082;8.816;2024-03-02T07:09:45;100252.75;;;10.13;64.28
64889;BME280;51386;53.082;8.816;2024-03-02T07:12:14;100244.16;;;10.19;64.15
64889;BME280;51386;53.082;8.816;2024-03-02T07:14:42;100248.50;;;10.27;64.50
64889;BME280;51386;53.082;8.816;2024-03-02T07:17:31;100247.38;;;10.36;63.95
64889;BME280;51386;53.082;8.816;2024-03-02T07:20:00;100250.91;;;10.43;63.98
64889;BME280;51386;53.082;8.816;2024-03-02T07:22:28;100254.06;;;10.53;63.69
64889;BME280;51386;53.082;8.816;2024-03-02T07:24:56;100257.00;;;10.64;63.53
64889;BME280;51386;53.082;8.816;2024-03-02T07:27:25;100252.44;;;10.73;63.33
64889;BME280;51386;53.082;8.816;2024-03-02T07:29:53;100256.75;;;10.80;63.16
64889;BME280;51386;53.082;8.816;2024-03-02T07:32:22;100259.66;;;10.85;62.50
64889;BME280;51386;53.082;8.816;2024-03-02T07:34:50;100273.44;;;10.87;62.64
64889;BME280;51386;53.082;8.816;2024-03-02T07:37:19;100266.78;;;10.92;62.27
64889;BME280;51386;53.082;8.816;2024-03-02T07:39:48;100267.03;;;10.97;62.35
64889;BME280;51386;53.082;8.816;2024-03-02T07:42:17;100273.63;;;11.07;62.24
64889;BME280;51386;53.082;8.816;2024-03-02T07:44:45;100278.56;;;11.17;62.06
64889;BME280;51386;53.082;8.816;2024-03-02T07:47:14;100272.91;;;11.20;61.75
64889;BME280;51386;53.082;8.816;2024-03-02T07:49:44;100268.91;;;11.24;61.69
64889;BME280;51386;53.082;8.816;2024-03-02T07:52:13;100268.50;;;11.27;61.71
64889;BME280;51386;53.082;8.816;2024-03-02T07:54:41;100266.31;;;11.30;61.45
64889;BME280;51386;53.082;8.816;2024-03-02T07:57:10;100267.16;;;11.31;61.30
64889;BME280;51386;53.082;8.816;2024-03-02T07:59:38;100260.44;;;11.28;61.23
64889;BME280;51386;53.082;8.816;2024-03-02T08:02:07;100266.53;;;11.29;61.35
64889;BME280;51386;53.082;8.816;2024-03-02T08:04:35;100266.53;;;11.29;61.23
64889;BME280;51386;53.082;8.816;2024-03-02T08:07:05;100275.22;;;11.29;61.37
64889;BME280;51386;53.082;8.816;2024-03-02T08:09:34;100275.66;;;11.33;61.25
64889;BME280;51386;53.082;8.816;2024-03-02T08:12:03;100277.28;;;11.34;61.35
64889;BME280;51386;53.082;8.816;2024-03-02T08:14:31;100274.72;;;11.40;61.06
64889;BME280;51386;53.082;8.816;2024-03-02T08:16:59;100265.00;;;11.41;61.18
64889;BME280;51386;53.082;8.816;2024-03-02T08:19:29;100272.50;;;11.44;60.95
64889;BME280;51386;53.082;8.816;2024-03-02T08:21:57;100281.69;;;11.48;61.01
64889;BME280;51386;53.082;8.816;2024-03-02T08:24:27;100276.44;;;11.54;60.73
64889;BME280;51386;53.082;8.816;2024-03-02T08:26:56;100274.44;;;11.56;60.76
64889;BME280;51386;53.082;8.816;2024-03-02T08:29:24;100278.13;;;11.62;60.84
64889;BME280;51386;53.082;8.816;2024-03-02T08:31:54;100278.34;;;11.67;60.47
64889;BME280;51386;53.082;8.816;2024-03-02T08:34:22;100291.78;;;11.72;60.61
64889;BME280;51386;53.082;8.816;2024-03-02T08:36:50;100290.41;;;11.76;60.40
64889;BME280;51386;53.082;8.816;2024-03-02T08:39:19;100286.38;;;11.80;60.44
64889;BME280;51386;53.082;8.816;2024-03-02T08:41:48;100283.19;;;11.91;60.32
64889;BME280;51386;53.082;8.816;2024-03-02T08:44:17;100296.09;;;12.07;60.38
64889;BME280;51386;53.082;8.816;2024-03-02T08:46:45;100300.63;;;12.27;59.85
64889;BME280;51386;53.082;8.816;2024-03-02T08:49:14;100306.63;;;12.55;59.21
64889;BME280;51386;53.082;8.816;2024-03-02T08:51:42;100302.66;;;12.98;59.54
64889;BME280;51386;53.082;8.816;2024-03-02T08:54:11;100306.41;;;13.49;58.73
64889;BME280;51386;53.082;8.816;2024-03-02T08:56:39;100318.19;;;13.93;57.27
64889;BME280;51386;53.082;8.816;2024-03-02T08:59:07;100322.16;;;14.28;56.88
64889;BME280;51386;53.082;8.816;2024-03-02T09:01:36;100318.34;;;14.68;56.67
64889;BME280;51386;53.082;8.816;2024-03-02T09:04:09;100315.47;;;15.08;55.01
64889;BME280;51386;53.082;8.816;2024-03-02T09:06:38;100314.16;;;15.48;54.13
64889;BME280;51386;53.082;8.816;2024-03-02T09:09:06;100313.00;;;15.87;52.89
64889;BME280;51386;53.082;8.816;2024-03-02T09:11:35;100315.63;;;16.11;51.77
64889;BME280;51386;53.082;8.816;2024-03-02T09:14:04;100310.75;;;16.26;50.02
64889;BME280;51386;53.082;8.816;2024-03-02T09:16:33;100322.91;;;16.52;49.05
64889;BME280;51386;53.082;8.816;2024-03-02T09:19:01;100326.72;;;16.74;47.87
64889;BME280;51386;53.082;8.816;2024-03-02T09:21:30;100323.84;;;17.06;48.33
64889;BME280;51386;53.082;8.816;2024-03-02T09:23:58;100308.19;;;17.50;47.32
64889;BME280;51386;53.082;8.816;2024-03-02T09:26:27;100318.91;;;17.97;46.88
64889;BME280;51386;53.082;8.816;2024-03-02T09:28:55;100314.94;;;18.22;46.89
64889;BME280;51386;53.082;8.816;2024-03-02T09:31:24;100311.09;;;18.30;45.64
64889;BME280;51386;53.082;8.816;2024-03-02T09:33:52;100317.09;;;18.37;44.96
64889;BME280;51386;53.082;8.816;2024-03-02T09:36:22;100319.50;;;18.39;44.16
64889;BME280;51386;53.082;8.816;2024-03-02T09:38:51;100319.16;;;18.35;44.19
64889;BME280;51386;53.082;8.816;2024-03-02T09:41:19;100317.03;;;18.09;43.54
64889;BME280;51386;53.082;8.816;2024-03-02T09:43:48;100321.88;;;18.12;44.87
64889;BME280;51386;53.082;8.816;2024-03-02T09:46:19;100306.44;;;18.37;44.51
64889;BME280;51386;53.082;8.816;2024-03-02T09:48:47;100319.34;;;18.68;44.20
64889;BME280;51386;53.082;8.816;2024-03-02T09:51:16;100314.06;;;18.85;42.94
64889;BME280;51386;53.082;8.816;2024-03-02T09:53:47;100328.44;;;18.84;41.68
64889;BME280;51386;53.082;8.816;2024-03-02T09:56:16;100326.53;;;18.96;42.87
64889;BME280;51386;53.082;8.816;2024-03-02T09:58:46;100324.81;;;19.35;42.23
64889;BME280;51386;53.082;8.816;2024-03-02T10:01:14;100316.41;;;19.76;41.43
64889;BME280;51386;53.082;8.816;2024-03-02T10:03:45;100310.09;;;20.42;40.30
64889;BME280;51386;53.082;8.816;2024-03-02T10:06:26;100312.72;;;21.07;39.11
64889;BME280;51386;53.082;8.816;2024-03-02T10:08:56;100323.44;;;21.76;38.36
64889;BME280;51386;53.082;8.816;2024-03-02T10:11:32;100316.38;;;22.53;36.96
64889;BME280;51386;53.082;8.816;2024-03-02T10:14:13;100315.97;;;23.12;35.46
64889;BME280;51386;53.082;8.816;2024-03-02T10:16:44;100319.53;;;23.52;35.47
64889;BME280;51386;53.082;8.816;2024-03-02T10:21:54;100316.78;;;24.67;33.39
64889;BME280;51386;53.082;8.816;2024-03-02T10:24:22;100319.50;;;25.11;32.63
64889;BME280;51386;53.082;8.816;2024-03-02T10:26:52;100311.72;;;25.43;32.07
64889;BME280;51386;53.082;8.816;2024-03-02T10:29:21;100320.19;;;25.89;32.13
64889;BME280;51386;53.082;8.816;2024-03-02T10:31:49;100315.56;;;26.42;30.70
64889;BME280;51386;53.082;8.816;2024-03-02T10:34:18;100308.78;;;26.63;29.54
64889;BME280;51386;53.082;8.816;2024-03-02T10:36:47;100318.41;;;26.93;29.67
64889;BME280;51386;53.082;8.816;2024-03-02T10:39:17;100313.53;;;27.27;29.52
64889;BME280;51386;53.082;8.816;2024-03-02T10:41:46;100318.22;;;27.40;27.52
64889;BME280;51386;53.082;8.816;2024-03-02T10:44:18;100318.91;;;26.95;27.76
64889;BME280;51386;53.082;8.816;2024-03-02T10:46:49;100316.63;;;26.64;27.23
64889;BME280;51386;53.082;8.816;2024-03-02T10:49:20;100312.28;;;26.45;27.90
64889;BME280;51386;53.082;8.816;2024-03-02T10:51:49;100311.84;;;26.38;28.89
64889;BME280;51386;53.082;8.816;2024-03-02T10:54:18;100313.06;;;26.27;28.46
64889;BME280;51386;53.082;8.816;2024-03-02T10:56:47;100302.47;;;26.06;28.81
64889;BME280;51386;53.082;8.816;2024-03-02T10:59:33;100309.13;;;25.62;28.05
64889;BME280;51386;53.082;8.816;2024-03-02T11:02:04;100309.38;;;25.31;28.59
64889;BME280;51386;53.082;8.816;2024-03-02T11:04:35;100306.53;;;25.13;29.39
64889;BME280;51386;53.082;8.816;2024-03-02T11:07:09;100311.38;;;25.16;29.90
64889;BME280;51386;53.082;8.816;2024-03-02T11:09:50;100315.41;;;25.18;28.65
64889;BME280;51386;53.082;8.816;2024-03-02T11:12:38;100319.09;;;25.27;29.29
64889;BME280;51386;53.082;8.816;2024-03-02T11:15:18;100315.25;;;25.38;29.42
64889;BME280;51386;53.082;8.816;2024-03-02T11:17:50;100309.97;;;25.23;29.09
64889;BME280;51386;53.082;8.816;2024-03-02T11:20:18;100310.41;;;25.35;29.78
64889;BME280;51386;53.082;8.816;2024-03-02T11:22:48;100310.78;;;25.86;29.46
64889;BME280;51386;53.082;8.816;2024-03-02T11:25:27;100323.78;;;26.55;28.29
64889;BME280;51386;53.082;8.816;2024-03-02T11:30:49;100308.47;;;26.69;26.88
64889;BME280;51386;53.082;8.816;2024-03-02T11:33:23;100306.72;;;26.78;27.20
64889;BME280;51386;53.082;8.816;2024-03-02T11:35:53;100303.88;;;26.89;27.66
64889;BME280;51386;53.082;8.816;2024-03-02T11:38:27;100306.34;;;27.04;26.90
64889;BME280;51386;53.082;8.816;2024-03-02T11:40:57;100307.50;;;27.16;26.38
64889;BME280;51386;53.082;8.816;2024-03-02T11:43:30;100293.44;;;27.33;26.30
64889;BME280;51386;53.082;8.816;2024-03-02T11:46:03;100294.00;;;27.48;26.19
64889;BME280;51386;53.082;8.816;2024-03-02T11:48:36;100296.78;;;27.76;26.18
64889;BME280;51386;53.082;8.816;2024-03-02T11:51:06;100304.09;;;27.89;25.29
64889;BME280;51386;53.082;8.816;2024-03-02T11:53:38;100291.22;;;27.67;25.34
64889;BME280;51386;53.082;8.816;2024-03-02T11:56:09;100293.41;;;27.38;25.70
64889;BME280;51386;53.082;8.816;2024-03-02T11:58:40;100290.59;;;26.92;26.35
64889;BME280;51386;53.082;8.816;2024-03-02T12:01:10;100287.94;;;26.68;26.85
64889;BME280;51386;53.082;8.816;2024-03-02T12:03:39;100289.81;;;26.68;26.83
64889;BME280;51386;53.082;8.816;2024-03-02T12:06:07;100286.13;;;26.22;26.47
64889;BME280;51386;53.082;8.816;2024-03-02T12:08:38;100303.59;;;25.77;27.42
64889;BME280;51386;53.082;8.816;2024-03-02T12:11:06;100292.78;;;25.53;27.93
64889;BME280;51386;53.082;8.816;2024-03-02T12:13:35;100295.59;;;24.99;28.06
64889;BME280;51386;53.082;8.816;2024-03-02T12:16:04;100293.66;;;24.61;28.78
64889;BME280;51386;53.082;8.816;2024-03-02T12:18:33;100293.22;;;24.44;28.78
64889;BME280;51386;53.082;8.816;2024-03-02T12:21:01;100289.56;;;24.19;29.00
64889;BME280;51386;53.082;8.816;2024-03-02T12:23:32;100283.16;;;24.00;29.44
64889;BME280;51386;53.082;8.816;2024-03-02T12:26:00;100294.00;;;23.60;30.00
64889;BME280;51386;53.082;8.816;2024-03-02T12:28:29;100299.91;;;23.32;30.61
64889;BME280;51386;53.082;8.816;2024-03-02T12:30:59;100288.63;;;23.45;30.70
64889;BME280;51386;53.082;8.816;2024-03-02T12:33:28;100295.56;;;23.76;30.36
64889;BME280;51386;53.082;8.816;2024-03-02T12:35:57;100303.56;;;24.01;30.09
64889;BME280;51386;53.082;8.816;2024-03-02T12:38:26;100292.25;;;24.19;29.85
64889;BME280;51386;53.082;8.816;2024-03-02T12:40:55;100300.72;;;24.47;29.41
64889;BME280;51386;53.082;8.816;2024-03-02T12:43:24;100293.69;;;24.56;29.75
64889;BME280;51386;53.082;8.816;2024-03-02T12:45:53;100296.81;;;24.73;29.38
64889;BME280;51386;53.082;8.816;2024-03-02T12:48:24;100299.31;;;24.64;28.67
64889;BME280;51386;53.082;8.816;2024-03-02T12:50:52;100297.97;;;24.62;28.94
64889;BME280;51386;53.082;8.816;2024-03-02T12:53:22;100292.28;;;24.63;28.98
64889;BME280;51386;53.082;8.816;2024-03-02T12:55:50;100289.72;;;24.48;29.23
64889;BME280;51386;53.082;8.816;2024-03-02T12:58:20;100288.72;;;24.29;29.30
64889;BME280;51386;53.082;8.816;2024-03-02T13:00:50;100290.56;;;24.39;29.43
64889;BME280;51386;53.082;8.816;2024-03-02T13:03:38;100292.69;;;24.42;29.50
64889;BME280;51386;53.082;8.816;2024-03-02T13:06:07;100285.19;;;24.39;29.92
64889;BME280;51386;53.082;8.816;2024-03-02T13:08:36;100285.75;;;24.26;30.09
64889;BME280;51386;53.082;8.816;2024-03-02T13:11:04;100279.84;;;24.23;29.39